KWMC/WMC METAR and TAF weather

Enter ICAO airport designator
Station Type Date Time Source
KWMC METAR 2019/11/18 03:56 UTC NOAA

KWMC 180356Z AUTO 14004KT 10SM CLR 02/M08 A3026 RMK AO2 SLP259 T00221083


Station Type Date Time Source
KWMC Decoded METAR 2019/11/18 03:56 UTC NOAA

WINNEMUCCA MUNICIPAL AIRPORT, NV, United States (KWMC) 40-54N 117-48W 1310M
Nov 17, 2019 - 10:56 PM EST / 2019.11.18 0356 UTC
Wind: from the SE (140 degrees) at 5 MPH (4 KT):0
Visibility: 10 mile(s):0
Sky conditions: clear
Temperature: 36.0 F (2.2 C)
Dew Point: 17.1 F (-8.3 C)
Relative Humidity: 45%
Pressure (altimeter): 30.26 in. Hg (1024 hPa)
ob: KWMC 180356Z AUTO 14004KT 10SM CLR 02/M08 A3026 RMK AO2 SLP259 T00221083
cycle: 4

Station Type Date Time Source
KWMC TAF 2019/11/17 18:24 UTC NOAA

TAF KWMC 171720Z 1718/1818 VRB03KT P6SM FEW250

Example: see airport list